Terminal Aerodrome Forecast
Issued by NWS

Home | Current Version | Previous Version | Text Only | Print | Product List | Glossary On
Versions: 1 2 3 4 5 6 7 8 9 10 11 12 13 14 15 16 17 18 19 20 21 22 23 24
000
FTUS44 KLIX 210521
TAFHDC
TAF
KHDC 210521Z 2106/2206 10005KT P6SM SCT035 BKN100
     FM211700 13009KT P6SM SCT030 BKN100 PROB30 2117/2123 4SM TSRA
      BKN020CB
     FM220000 12008KT P6SM SCT020 OVC025 PROB30 2200/2206 4SM -TSRA
      BKN020CB=

USA.gov is the U.S. government's official web portal to all federal, state and local government web resources and services.